Time,TemperatureF,DewpointF,PressureIn,WindDirection,WindDirectionDegrees,WindSpeedMPH,WindSpeedGustMPH,Humidity,HourlyPrecipIn,Conditions,Clouds,dailyrainin,SoftwareType,DateUTC
2013-05-05 00:03:00,-999.0,-99.9,30.17,West,277,7.0,8.0,-999,-99.99,,,-99.99,,2013-05-05 08:03:00,
2013-05-05 00:11:00,-999.0,-99.9,30.17,West,274,8.0,9.0,-999,-99.99,,,-99.99,,2013-05-05 08:11:00,
2013-05-05 00:22:00,-999.0,-99.9,30.17,West,274,9.0,9.0,-999,-99.99,,,-99.99,,2013-05-05 08:22:00,
2013-05-05 00:32:00,-999.0,-99.9,30.17,West,270,9.0,10.0,-999,-99.99,,,-99.99,,2013-05-05 08:32:00,
2013-05-05 00:42:00,26.0,-99.9,30.17,West,269,10.0,11.0,-999,-99.99,,,-99.99,,2013-05-05 08:42:00,
2013-05-05 00:53:00,-999.0,-99.9,30.17,West,266,10.0,11.0,-999,-99.99,,,-99.99,,2013-05-05 08:53:00,
2013-05-05 01:01:00,-999.0,-99.9,30.17,West,267,11.0,13.0,-999,-99.99,,,-99.99,,2013-05-05 09:01:00,
2013-05-05 01:11:00,26.0,-99.9,30.17,West,266,11.0,13.0,-999,-99.99,,,-99.99,,2013-05-05 09:11:00,
2013-05-05 01:22:00,-999.0,-99.9,30.18,West,267,11.0,12.0,-999,-99.99,,,-99.99,,2013-05-05 09:22:00,
2013-05-05 01:33:00,-999.0,-99.9,30.18,West,271,11.0,12.0,-999,-99.99,,,-99.99,,2013-05-05 09:33:00,
2013-05-05 01:42:00,-999.0,-99.9,30.18,West,268,10.0,11.0,-999,-99.99,,,-99.99,,2013-05-05 09:42:00,
2013-05-05 01:52:00,26.0,-99.9,30.18,West,273,10.0,11.0,-999,-99.99,,,-99.99,,2013-05-05 09:52:00,
2013-05-05 02:03:00,-999.0,-99.9,30.18,West,270,10.0,11.0,-999,-99.99,,,-99.99,,2013-05-05 10:03:00,
2013-05-05 02:12:00,26.0,-99.9,30.18,West,272,9.0,11.0,-999,-99.99,,,-99.99,,2013-05-05 10:12:00,
2013-05-05 02:22:00,-999.0,-99.9,30.19,West,275,9.0,10.0,-999,-99.99,,,-99.99,,2013-05-05 10:22:00,
2013-05-05 02:32:00,-999.0,-99.9,30.19,West,278,8.0,9.0,-999,-99.99,,,-99.99,,2013-05-05 10:32:00,
2013-05-05 02:42:00,26.0,-99.9,30.19,West,280,7.0,9.0,-999,-99.99,,,-99.99,,2013-05-05 10:42:00,
2013-05-05 02:53:00,-999.0,-99.9,30.19,West,272,6.0,7.0,-999,-99.99,,,-99.99,,2013-05-05 10:53:00,
2013-05-05 03:02:00,-999.0,-99.9,30.19,West,277,8.0,9.0,-999,-99.99,,,-99.99,,2013-05-05 11:02:00,
2013-05-05 03:12:00,-999.0,-99.9,30.19,West,278,7.0,8.0,-999,-99.99,,,-99.99,,2013-05-05 11:12:00,
2013-05-05 03:22:00,26.0,-99.9,30.19,West,279,7.0,8.0,-999,-99.99,,,-99.99,,2013-05-05 11:22:00,
2013-05-05 03:32:00,-999.0,-99.9,30.19,West,280,10.0,11.0,-999,-99.99,,,-99.99,,2013-05-05 11:32:00,
2013-05-05 03:42:00,26.0,-99.9,30.19,West,280,10.0,11.0,-999,-99.99,,,-99.99,,2013-05-05 11:42:00,
2013-05-05 03:52:00,-999.0,-99.9,30.19,West,275,8.0,9.0,-999,-99.99,,,-99.99,,2013-05-05 11:52:00,
2013-05-05 04:02:00,-999.0,-99.9,30.19,West,269,11.0,13.0,-999,-99.99,,,-99.99,,2013-05-05 12:02:00,
2013-05-05 04:12:00,27.0,-99.9,30.19,West,269,11.0,12.0,-999,-99.99,,,-99.99,,2013-05-05 12:12:00,
2013-05-05 04:22:00,-999.0,-99.9,30.19,West,264,13.0,15.0,-999,-99.99,,,-99.99,,2013-05-05 12:22:00,
2013-05-05 04:32:00,-999.0,-99.9,30.19,West,264,13.0,14.0,-999,-99.99,,,-99.99,,2013-05-05 12:32:00,
2013-05-05 04:42:00,-999.0,-99.9,30.19,West,261,12.0,14.0,-999,-99.99,,,-99.99,,2013-05-05 12:42:00,
2013-05-05 04:52:00,-999.0,-99.9,30.19,West,263,12.0,15.0,-999,-99.99,,,-99.99,,2013-05-05 12:52:00,
2013-05-05 05:01:00,-999.0,-99.9,30.19,West,262,13.0,16.0,-999,-99.99,,,-99.99,,2013-05-05 13:01:00,
2013-05-05 05:11:00,26.0,-99.9,30.19,West,261,15.0,17.0,-999,-99.99,,,-99.99,,2013-05-05 13:11:00,
2013-05-05 05:21:00,-999.0,-99.9,30.19,West,264,13.0,15.0,-999,-99.99,,,-99.99,,2013-05-05 13:21:00,
2013-05-05 05:32:00,-999.0,-99.9,30.19,West,267,12.0,15.0,-999,-99.99,,,-99.99,,2013-05-05 13:32:00,
2013-05-05 05:42:00,26.0,-99.9,30.19,West,265,13.0,15.0,-999,-99.99,,,-99.99,,2013-05-05 13:42:00,
2013-05-05 05:52:00,-999.0,-99.9,30.19,West,264,13.0,14.0,-999,-99.99,,,-99.99,,2013-05-05 13:52:00,
2013-05-05 06:02:00,-999.0,-99.9,30.19,West,269,13.0,15.0,-999,-99.99,,,-99.99,,2013-05-05 14:02:00,
2013-05-05 06:11:00,-999.0,-99.9,30.20,West,271,14.0,16.0,-999,-99.99,,,-99.99,,2013-05-05 14:11:00,
2013-05-05 06:21:00,25.0,-99.9,30.20,West,270,15.0,17.0,-999,-99.99,,,-99.99,,2013-05-05 14:21:00,
2013-05-05 06:32:00,-999.0,-99.9,30.20,West,273,15.0,17.0,-999,-99.99,,,-99.99,,2013-05-05 14:32:00,
2013-05-05 06:42:00,25.0,-99.9,30.20,West,267,13.0,15.0,-999,-99.99,,,-99.99,,2013-05-05 14:42:00,
2013-05-05 06:52:00,-999.0,-99.9,30.20,West,265,15.0,17.0,-999,-99.99,,,-99.99,,2013-05-05 14:52:00,
2013-05-05 07:02:00,-999.0,-99.9,30.20,West,266,15.0,17.0,-999,-99.99,,,-99.99,,2013-05-05 15:02:00,
2013-05-05 07:11:00,25.0,-99.9,30.20,West,261,16.0,18.0,-999,-99.99,,,-99.99,,2013-05-05 15:11:00,
2013-05-05 07:21:00,-999.0,-99.9,30.20,West,269,14.0,17.0,-999,-99.99,,,-99.99,,2013-05-05 15:21:00,
2013-05-05 07:33:00,-999.0,-99.9,30.20,West,273,16.0,18.0,-999,-99.99,,,-99.99,,2013-05-05 15:33:00,
2013-05-05 07:43:00,24.0,-99.9,30.20,West,274,14.0,17.0,-999,-99.99,,,-99.99,,2013-05-05 15:43:00,
2013-05-05 07:53:00,-999.0,-99.9,30.20,West,278,14.0,16.0,-999,-99.99,,,-99.99,,2013-05-05 15:53:00,
2013-05-05 08:03:00,-999.0,-99.9,30.21,West,276,15.0,17.0,-999,-99.99,,,-99.99,,2013-05-05 16:03:00,
2013-05-05 08:12:00,23.0,-99.9,30.21,West,275,16.0,18.0,-999,-99.99,,,-99.99,,2013-05-05 16:12:00,
2013-05-05 08:23:00,-999.0,-99.9,30.21,West,280,16.0,19.0,-999,-99.99,,,-99.99,,2013-05-05 16:23:00,
2013-05-05 08:32:00,-999.0,-99.9,30.21,WNW,282,15.0,17.0,-999,-99.99,,,-99.99,,2013-05-05 16:32:00,
2013-05-05 08:42:00,-999.0,-99.9,30.22,West,270,16.0,18.0,-999,-99.99,,,-99.99,,2013-05-05 16:42:00,
2013-05-05 08:53:00,-999.0,-99.9,30.22,West,269,15.0,17.0,-999,-99.99,,,-99.99,,2013-05-05 16:53:00,
2013-05-05 09:02:00,-999.0,-99.9,30.22,West,276,15.0,17.0,-999,-99.99,,,-99.99,,2013-05-05 17:02:00,
2013-05-05 09:12:00,23.0,-99.9,30.22,West,271,15.0,17.0,-999,-99.99,,,-99.99,,2013-05-05 17:12:00,
2013-05-05 09:23:00,-999.0,-99.9,30.22,West,267,13.0,15.0,-999,-99.99,,,-99.99,,2013-05-05 17:23:00,
2013-05-05 09:32:00,-999.0,-99.9,30.22,West,264,15.0,18.0,-999,-99.99,,,-99.99,,2013-05-05 17:32:00,
2013-05-05 09:42:00,23.0,-99.9,30.23,West,273,13.0,17.0,-999,-99.99,,,-99.99,,2013-05-05 17:42:00,
2013-05-05 09:52:00,-999.0,-99.9,30.23,West,267,15.0,16.0,-999,-99.99,,,-99.99,,2013-05-05 17:52:00,
2013-05-05 10:01:00,-999.0,-99.9,30.23,West,274,12.0,14.0,-999,-99.99,,,-99.99,,2013-05-05 18:01:00,
2013-05-05 10:12:00,-999.0,-99.9,30.24,WSW,254,10.0,13.0,-999,-99.99,,,-99.99,,2013-05-05 18:12:00,
2013-05-05 10:22:00,-999.0,-99.9,30.23,WSW,251,11.0,13.0,-999,-99.99,,,-99.99,,2013-05-05 18:22:00,
2013-05-05 10:32:00,-999.0,-99.9,30.23,West,276,12.0,14.0,-999,-99.99,,,-99.99,,2013-05-05 18:32:00,
2013-05-05 10:42:00,23.0,-99.9,30.24,West,274,9.0,13.0,-999,-99.99,,,-99.99,,2013-05-05 18:42:00,
2013-05-05 10:52:00,-999.0,-99.9,30.24,West,263,11.0,13.0,-999,-99.99,,,-99.99,,2013-05-05 18:52:00,
2013-05-05 11:02:00,-999.0,-99.9,30.24,WSW,257,11.0,13.0,-999,-99.99,,,-99.99,,2013-05-05 19:02:00,
2013-05-05 11:12:00,24.0,-99.9,30.24,West,267,12.0,13.0,-999,-99.99,,,-99.99,,2013-05-05 19:12:00,
2013-05-05 11:22:00,-999.0,-99.9,30.24,West,263,11.0,13.0,-999,-99.99,,,-99.99,,2013-05-05 19:22:00,
2013-05-05 11:32:00,-999.0,-99.9,30.24,West,265,9.0,11.0,-999,-99.99,,,-99.99,,2013-05-05 19:32:00,
2013-05-05 11:42:00,-999.0,-99.9,30.24,West,265,13.0,14.0,-999,-99.99,,,-99.99,,2013-05-05 19:42:00,
2013-05-05 11:52:00,-999.0,-99.9,30.24,West,269,11.0,14.0,-999,-99.99,,,-99.99,,2013-05-05 19:52:00,
2013-05-05 12:02:00,-999.0,-99.9,30.24,West,268,10.0,13.0,-999,-99.99,,,-99.99,,2013-05-05 20:02:00,
2013-05-05 12:11:00,-999.0,-99.9,30.24,West,268,10.0,13.0,-999,-99.99,,,-99.99,,2013-05-05 20:11:00,
2013-05-05 12:21:00,-999.0,-99.9,30.24,West,267,9.0,11.0,-999,-99.99,,,-99.99,,2013-05-05 20:21:00,
2013-05-05 12:32:00,-999.0,-99.9,30.24,West,259,10.0,12.0,-999,-99.99,,,-99.99,,2013-05-05 20:32:00,
2013-05-05 12:42:00,24.0,-99.9,30.24,WSW,253,12.0,14.0,-999,-99.99,,,-99.99,,2013-05-05 20:42:00,
2013-05-05 12:52:00,-999.0,-99.9,30.24,WSW,246,9.0,11.0,-999,-99.99,,,-99.99,,2013-05-05 20:52:00,
2013-05-05 13:02:00,-999.0,-99.9,30.24,WSW,254,10.0,11.0,-999,-99.99,,,-99.99,,2013-05-05 21:02:00,
2013-05-05 13:11:00,-999.0,-99.9,30.24,WSW,253,9.0,10.0,-999,-99.99,,,-99.99,,2013-05-05 21:11:00,
2013-05-05 13:22:00,25.0,-99.9,30.24,West,260,10.0,11.0,-999,-99.99,,,-99.99,,2013-05-05 21:22:00,
2013-05-05 13:33:00,-999.0,-99.9,30.24,WSW,239,6.0,8.0,-999,-99.99,,,-99.99,,2013-05-05 21:33:00,
2013-05-05 13:42:00,25.0,-99.9,30.24,SW,234,9.0,10.0,-999,-99.99,,,-99.99,,2013-05-05 21:42:00,
2013-05-05 13:53:00,-999.0,-99.9,30.24,WSW,256,9.0,13.0,-999,-99.99,,,-99.99,,2013-05-05 21:53:00,
2013-05-05 14:03:00,-999.0,-99.9,30.24,WSW,258,6.0,9.0,-999,-99.99,,,-99.99,,2013-05-05 22:03:00,
2013-05-05 14:12:00,26.0,-99.9,30.24,West,260,5.0,6.0,-999,-99.99,,,-99.99,,2013-05-05 22:12:00,
2013-05-05 14:23:00,-999.0,-99.9,30.24,WSW,255,4.0,5.0,-999,-99.99,,,-99.99,,2013-05-05 22:23:00,
2013-05-05 14:34:00,-999.0,-99.9,30.24,West,268,4.0,4.0,-999,-99.99,,,-99.99,,2013-05-05 22:34:00,
2013-05-05 14:42:00,-999.0,-99.9,30.24,SW,231,6.0,7.0,-999,-99.99,,,-99.99,,2013-05-05 22:42:00,
2013-05-05 14:52:00,27.0,-99.9,30.24,SW,233,5.0,7.0,-999,-99.99,,,-99.99,,2013-05-05 22:52:00,
2013-05-05 15:02:00,-999.0,-99.9,30.24,SW,228,4.0,7.0,-999,-99.99,,,-99.99,,2013-05-05 23:02:00,
2013-05-05 15:12:00,27.0,-99.9,30.24,SW,236,4.0,5.0,-999,-99.99,,,-99.99,,2013-05-05 23:12:00,
2013-05-05 15:22:00,-999.0,-99.9,30.24,SW,217,3.0,5.0,-999,-99.99,,,-99.99,,2013-05-05 23:22:00,
2013-05-05 15:32:00,-999.0,-99.9,30.24,SW,233,4.0,6.0,-999,-99.99,,,-99.99,,2013-05-05 23:32:00,
2013-05-05 15:42:00,28.0,-99.9,30.24,WSW,241,5.0,6.0,-999,-99.99,,,-99.99,,2013-05-05 23:42:00,
2013-05-05 15:52:00,-999.0,-99.9,30.23,SW,234,5.0,6.0,-999,-99.99,,,-99.99,,2013-05-05 23:52:00,
2013-05-05 16:01:00,-999.0,-99.9,30.23,WSW,241,5.0,8.0,-999,-99.99,,,-99.99,,2013-05-06 00:01:00,
2013-05-05 16:11:00,-999.0,-99.9,30.23,SW,227,6.0,7.0,-999,-99.99,,,-99.99,,2013-05-06 00:11:00,
2013-05-05 16:22:00,-999.0,-99.9,30.23,SW,217,6.0,8.0,-999,-99.99,,,-99.99,,2013-05-06 00:22:00,
2013-05-05 16:32:00,-999.0,-99.9,30.23,SW,214,4.0,6.0,-999,-99.99,,,-99.99,,2013-05-06 00:32:00,
2013-05-05 16:42:00,28.0,-99.9,30.23,SW,221,4.0,6.0,-999,-99.99,,,-99.99,,2013-05-06 00:42:00,
2013-05-05 16:52:00,-999.0,-99.9,30.23,South,189,3.0,4.0,-999,-99.99,,,-99.99,,2013-05-06 00:52:00,
2013-05-05 17:01:00,-999.0,-99.9,30.23,South,181,2.0,4.0,-999,-99.99,,,-99.99,,2013-05-06 01:01:00,
2013-05-05 17:11:00,28.0,-99.9,30.23,WSW,251,7.0,7.0,-999,-99.99,,,-99.99,,2013-05-06 01:11:00,
2013-05-05 17:21:00,-999.0,-99.9,30.23,SSW,200,9.0,11.0,-999,-99.99,,,-99.99,,2013-05-06 01:21:00,
2013-05-05 17:32:00,-999.0,-99.9,30.23,SSW,208,7.0,10.0,-999,-99.99,,,-99.99,,2013-05-06 01:32:00,
2013-05-05 17:42:00,-999.0,-99.9,30.22,SW,214,8.0,11.0,-999,-99.99,,,-99.99,,2013-05-06 01:42:00,
2013-05-05 17:52:00,-999.0,-99.9,30.22,SSW,213,10.0,12.0,-999,-99.99,,,-99.99,,2013-05-06 01:52:00,
2013-05-05 18:02:00,-999.0,-99.9,30.22,SW,217,10.0,12.0,-999,-99.99,,,-99.99,,2013-05-06 02:02:00,
2013-05-05 18:12:00,28.0,-99.9,30.22,SW,224,11.0,12.0,-999,-99.99,,,-99.99,,2013-05-06 02:12:00,
2013-05-05 18:21:00,-999.0,-99.9,30.22,SW,219,10.0,13.0,-999,-99.99,,,-99.99,,2013-05-06 02:21:00,
2013-05-05 18:32:00,-999.0,-99.9,30.22,SW,232,10.0,13.0,-999,-99.99,,,-99.99,,2013-05-06 02:32:00,
2013-05-05 18:42:00,28.0,-99.9,30.22,SW,230,11.0,13.0,-999,-99.99,,,-99.99,,2013-05-06 02:42:00,
2013-05-05 18:52:00,-999.0,-99.9,30.22,SW,224,14.0,15.0,-999,-99.99,,,-99.99,,2013-05-06 02:52:00,
2013-05-05 19:02:00,-999.0,-99.9,30.22,SW,220,12.0,14.0,-999,-99.99,,,-99.99,,2013-05-06 03:02:00,
2013-05-05 19:11:00,27.0,-99.9,30.22,SW,226,12.0,14.0,-999,-99.99,,,-99.99,,2013-05-06 03:11:00,
2013-05-05 19:22:00,-999.0,-99.9,30.22,SW,232,11.0,14.0,-999,-99.99,,,-99.99,,2013-05-06 03:22:00,
2013-05-05 19:33:00,-999.0,-99.9,30.22,SW,231,11.0,12.0,-999,-99.99,,,-99.99,,2013-05-06 03:33:00,
2013-05-05 19:43:00,27.0,-99.9,30.22,WSW,238,11.0,13.0,-999,-99.99,,,-99.99,,2013-05-06 03:43:00,
2013-05-05 19:53:00,-999.0,-99.9,30.22,WSW,241,11.0,13.0,-999,-99.99,,,-99.99,,2013-05-06 03:53:00,
2013-05-05 20:02:00,-999.0,-99.9,30.22,SW,234,13.0,14.0,-999,-99.99,,,-99.99,,2013-05-06 04:02:00,
2013-05-05 20:12:00,26.0,-99.9,30.21,SW,236,12.0,14.0,-999,-99.99,,,-99.99,,2013-05-06 04:12:00,
2013-05-05 20:23:00,-999.0,-99.9,30.21,SW,227,12.0,13.0,-999,-99.99,,,-99.99,,2013-05-06 04:23:00,
2013-05-05 20:32:00,-999.0,-99.9,30.21,SW,222,11.0,13.0,-999,-99.99,,,-99.99,,2013-05-06 04:32:00,
2013-05-05 20:43:00,26.0,-99.9,30.21,SW,226,11.0,13.0,-999,-99.99,,,-99.99,,2013-05-06 04:43:00,
2013-05-05 20:53:00,-999.0,-99.9,30.21,SW,228,10.0,12.0,-999,-99.99,,,-99.99,,2013-05-06 04:53:00,
2013-05-05 21:03:00,-999.0,-99.9,30.21,SW,224,11.0,13.0,-999,-99.99,,,-99.99,,2013-05-06 05:03:00,
2013-05-05 21:12:00,-999.0,-99.9,30.21,SW,224,10.0,12.0,-999,-99.99,,,-99.99,,2013-05-06 05:12:00,
2013-05-05 21:22:00,26.0,-99.9,30.21,SW,230,10.0,12.0,-999,-99.99,,,-99.99,,2013-05-06 05:22:00,
2013-05-05 21:32:00,-999.0,-99.9,30.20,SW,230,9.0,10.0,-999,-99.99,,,-99.99,,2013-05-06 05:32:00,
2013-05-05 21:42:00,26.0,-99.9,30.20,SW,233,10.0,11.0,-999,-99.99,,,-99.99,,2013-05-06 05:42:00,
2013-05-05 21:52:00,-999.0,-99.9,30.20,SW,232,9.0,11.0,-999,-99.99,,,-99.99,,2013-05-06 05:52:00,
2013-05-05 22:02:00,-999.0,-99.9,30.20,SW,229,8.0,9.0,-999,-99.99,,,-99.99,,2013-05-06 06:02:00,
2013-05-05 22:12:00,26.0,-99.9,30.20,SW,223,9.0,11.0,-999,-99.99,,,-99.99,,2013-05-06 06:12:00,
2013-05-05 22:22:00,-999.0,-99.9,30.20,SW,226,9.0,11.0,-999,-99.99,,,-99.99,,2013-05-06 06:22:00,
2013-05-05 22:32:00,-999.0,-99.9,30.20,SW,226,10.0,11.0,-999,-99.99,,,-99.99,,2013-05-06 06:32:00,
2013-05-05 22:42:00,-999.0,-99.9,30.20,SW,231,8.0,10.0,-999,-99.99,,,-99.99,,2013-05-06 06:42:00,
2013-05-05 22:52:00,-999.0,-99.9,30.20,SW,234,8.0,10.0,-999,-99.99,,,-99.99,,2013-05-06 06:52:00,
2013-05-05 23:01:00,-999.0,-99.9,30.20,SW,224,7.0,8.0,-999,-99.99,,,-99.99,,2013-05-06 07:01:00,
2013-05-05 23:11:00,25.0,-99.9,30.20,SSW,209,6.0,9.0,-999,-99.99,,,-99.99,,2013-05-06 07:11:00,
2013-05-05 23:22:00,-999.0,-99.9,30.21,SW,224,8.0,10.0,-999,-99.99,,,-99.99,,2013-05-06 07:22:00,
2013-05-05 23:32:00,-999.0,-99.9,30.21,SW,219,8.0,10.0,-999,-99.99,,,-99.99,,2013-05-06 07:32:00,
2013-05-05 23:42:00,25.0,-99.9,30.21,SW,216,7.0,9.0,-999,-99.99,,,-99.99,,2013-05-06 07:42:00,
2013-05-05 23:52:00,-999.0,-99.9,30.21,SW,219,8.0,9.0,-999,-99.99,,,-99.99,,2013-05-06 07:52:00,